Time;durP1;ratioP1;P1;durP2;ratioP2;P2;SDS_P1;SDS_P2;PMS_P1;PMS_P2;Temp;Humidity;BMP_temperature;BMP_pressure;BME280_temperature;BME280_humidity;BME280_pressure;Samples;Min_cycle;Max_cycle;Signal;HPM_P1;HPM_P2
2022/03/22 00:00:00;;;;;;;35.37;18.20;;;-3.70;1.00;;;;;;8431374;28;20499;-65
2022/03/22 00:04:02;;;;;;;40.77;18.63;;;-3.70;1.00;;;;;;8401433;28;20278;-66
2022/03/22 00:08:03;;;;;;;49.20;19.87;;;-3.80;99.90;;;;;;8424720;28;20203;-66
2022/03/22 00:12:05;;;;;;;35.23;16.97;;;-3.90;1.00;;;;;;8411833;28;20213;-66
2022/03/22 00:16:07;;;;;;;37.23;16.33;;;-4.00;1.00;;;;;;8409834;28;20213;-66
2022/03/22 00:20:10;;;;;;;30.63;16.20;;;-4.10;99.90;;;;;;8438805;28;20219;-66
2022/03/22 00:24:10;;;;;;;36.10;16.13;;;-4.10;99.90;;;;;;8406466;28;20218;-66
2022/03/22 00:28:13;;;;;;;31.70;16.00;;;-4.10;1.00;;;;;;8435135;28;20200;-66
2022/03/22 00:32:17;;;;;;;32.10;15.37;;;-4.20;99.90;;;;;;8406148;28;20210;-71
2022/03/22 00:36:18;;;;;;;33.77;16.27;;;-4.20;1.00;;;;;;8425115;28;20283;-66
2022/03/22 00:40:19;;;;;;;27.20;14.63;;;-4.30;1.00;;;;;;8421256;28;20220;-64
2022/03/22 00:44:22;;;;;;;29.60;14.27;;;-4.40;99.90;;;;;;8414518;28;20208;-66
2022/03/22 00:48:23;;;;;;;25.53;14.27;;;-4.40;99.90;;;;;;8429015;28;20277;-66
2022/03/22 00:52:25;;;;;;;30.20;14.20;;;-4.40;99.90;;;;;;8439204;28;20231;-65
2022/03/22 00:56:26;;;;;;;33.97;15.33;;;-4.50;1.00;;;;;;8429253;28;20220;-65
2022/03/22 01:00:27;;;;;;;32.73;15.90;;;-4.50;99.90;;;;;;8410589;28;20220;-65
2022/03/22 01:04:28;;;;;;;28.67;14.97;;;-4.50;1.00;;;;;;8422914;28;20200;-66
2022/03/22 01:08:29;;;;;;;35.07;17.13;;;-4.50;80.50;;;;;;8429444;28;20209;-65
2022/03/22 01:12:30;;;;;;;30.53;16.27;;;-4.50;99.90;;;;;;8396888;28;20231;-66
2022/03/22 01:16:31;;;;;;;37.73;16.63;;;-4.60;99.90;;;;;;8430956;28;20204;-66
2022/03/22 01:20:37;;;;;;;36.83;18.00;;;-4.70;99.90;;;;;;8431262;28;20247;-66
2022/03/22 01:24:38;;;;;;;32.20;16.50;;;-4.70;1.00;;;;;;8404174;28;20208;-66
2022/03/22 01:28:39;;;;;;;32.57;16.30;;;-4.80;99.90;;;;;;8426775;28;20619;-66
2022/03/22 01:32:40;;;;;;;36.43;17.27;;;-4.80;99.90;;;;;;8425402;28;20207;-66
2022/03/22 01:36:41;;;;;;;39.33;18.20;;;-4.80;1.00;;;;;;8422037;28;20203;-66
2022/03/22 01:40:42;;;;;;;34.23;16.70;;;-4.80;1.00;;;;;;8403657;28;20223;-64
2022/03/22 01:44:43;;;;;;;33.27;15.30;;;-4.90;5.50;;;;;;8422496;28;20289;-68
2022/03/22 01:48:44;;;;;;;35.90;16.53;;;-4.90;30.30;;;;;;8401403;28;20209;-67
2022/03/22 01:52:45;;;;;;;38.10;16.53;;;-5.00;99.90;;;;;;8408577;28;20660;-67
2022/03/22 01:56:46;;;;;;;39.37;18.03;;;-5.00;1.00;;;;;;8404350;28;20213;-67
2022/03/22 02:00:46;;;;;;;36.17;17.13;;;-5.00;99.90;;;;;;8402642;28;20228;-65
2022/03/22 02:09:08;;;;;;;39.10;17.87;;;-5.00;99.90;;;;;;8422090;28;20247;-66
2022/03/22 02:13:09;;;;;;;36.23;17.40;;;-5.10;11.90;;;;;;8425000;28;20212;-65
2022/03/22 02:17:10;;;;;;;38.50;17.93;;;-5.20;1.00;;;;;;8430339;28;20205;-66
2022/03/22 02:21:15;;;;;;;38.80;18.40;;;-5.20;99.90;;;;;;8428212;28;20211;-67
2022/03/22 02:25:16;;;;;;;38.37;17.23;;;-5.30;32.20;;;;;;8432198;28;20212;-65
2022/03/22 02:29:18;;;;;;;32.53;15.77;;;-5.40;99.90;;;;;;8424826;28;20212;-66
2022/03/22 02:33:18;;;;;;;33.23;15.77;;;-5.40;99.90;;;;;;8402683;28;20201;-64
2022/03/22 02:37:19;;;;;;;35.67;16.20;;;-5.40;99.90;;;;;;8411012;28;20203;-66
2022/03/22 02:41:22;;;;;;;28.90;14.17;;;-5.40;99.90;;;;;;8404142;28;20286;-65
2022/03/22 02:45:23;;;;;;;30.80;15.27;;;-5.40;1.00;;;;;;8431055;28;20242;-66
2022/03/22 02:49:24;;;;;;;36.83;16.07;;;-5.40;1.00;;;;;;8402623;28;20213;-66
2022/03/22 02:53:25;;;;;;;32.07;13.97;;;-5.40;1.00;;;;;;8434697;28;20204;-66
2022/03/22 02:57:26;;;;;;;30.67;15.67;;;-5.40;1.00;;;;;;8432183;28;20208;-66
2022/03/22 03:01:27;;;;;;;35.33;18.40;;;-5.50;1.00;;;;;;8416026;28;20257;-66
2022/03/22 03:05:27;;;;;;;34.47;18.43;;;-5.50;8.50;;;;;;8407627;28;20304;-65
2022/03/22 03:09:28;;;;;;;39.40;19.23;;;-5.50;3.30;;;;;;8402117;28;20238;-65
2022/03/22 03:14:38;;;;;;;40.50;18.83;;;-5.50;8.80;;;;;;8433791;28;20211;-65
2022/03/22 03:17:50;;;;;;;38.27;17.47;;;-5.50;99.90;;;;;;8429073;28;20230;-67
2022/03/22 03:21:51;;;;;;;33.67;17.67;;;-5.60;88.50;;;;;;8437311;28;20216;-65
2022/03/22 03:25:52;;;;;;;39.07;19.87;;;-5.60;49.50;;;;;;8434462;28;20386;-66
2022/03/22 03:29:52;;;;;;;42.97;19.10;;;-5.60;65.90;;;;;;8419758;28;20207;-66
2022/03/22 03:33:54;;;;;;;41.20;18.00;;;-5.60;99.90;;;;;;8436233;28;20207;-65
2022/03/22 03:37:55;;;;;;;34.80;17.80;;;-5.60;71.40;;;;;;8417060;28;20233;-66
2022/03/22 03:42:00;;;;;;;45.60;19.27;;;-5.70;84.30;;;;;;8398159;28;20216;-66
2022/03/22 03:50:20;;;;;;;39.40;17.83;;;-5.60;99.90;;;;;;8420957;28;20226;-64
2022/03/22 03:54:21;;;;;;;41.33;18.43;;;-5.70;99.90;;;;;;8397782;28;20201;-66
2022/03/22 03:58:21;;;;;;;40.77;18.73;;;-5.70;99.90;;;;;;8424587;28;20196;-64
2022/03/22 04:02:23;;;;;;;36.27;17.43;;;-5.80;99.90;;;;;;8422943;28;20215;-65
2022/03/22 04:06:24;;;;;;;39.77;17.53;;;-5.90;99.90;;;;;;8411033;28;20204;-65
2022/03/22 04:10:25;;;;;;;34.53;16.30;;;-5.90;99.90;;;;;;8423631;28;20228;-64
2022/03/22 04:14:25;;;;;;;38.63;17.93;;;-5.90;99.90;;;;;;8422688;28;20250;-66
2022/03/22 04:18:26;;;;;;;35.23;18.10;;;-5.90;99.90;;;;;;8409198;28;20396;-66
2022/03/22 04:22:27;;;;;;;37.37;19.17;;;-5.90;99.90;;;;;;8404505;28;20308;-64
2022/03/22 04:26:28;;;;;;;43.87;20.37;;;-5.90;99.90;;;;;;8405936;28;20200;-63
2022/03/22 04:34:48;;;;;;;37.13;18.57;;;-5.90;1.00;;;;;;8417374;28;20254;-64
2022/03/22 04:38:49;;;;;;;42.37;18.83;;;-5.90;1.00;;;;;;8424119;28;20200;-66
2022/03/22 04:42:51;;;;;;;61.53;24.33;;;-5.90;1.00;;;;;;8426481;28;20254;-66
2022/03/22 04:46:52;;;;;;;52.70;22.07;;;-5.90;1.00;;;;;;8423761;28;20545;-66
2022/03/22 04:56:43;;;;;;;42.30;20.37;;;-5.90;1.00;;;;;;8399033;28;20207;-65
2022/03/22 04:59:34;;;;;;;47.77;20.40;;;-5.80;1.00;;;;;;8432020;28;20239;-65
2022/03/22 05:03:35;;;;;;;45.33;20.93;;;-5.90;1.00;;;;;;8396306;28;20216;-65
2022/03/22 05:07:35;;;;;;;55.13;23.80;;;-5.90;1.00;;;;;;8401221;28;20207;-66
2022/03/22 05:11:37;;;;;;;69.37;28.43;;;-6.00;1.00;;;;;;8422531;28;20204;-65
2022/03/22 05:15:38;;;;;;;52.03;23.17;;;-5.90;1.00;;;;;;8423861;28;20239;-65
2022/03/22 05:19:40;;;;;;;43.57;20.23;;;-5.90;1.00;;;;;;8432325;28;20253;-66
2022/03/22 05:23:42;;;;;;;38.77;19.23;;;-5.80;1.00;;;;;;8423325;28;20216;-65
2022/03/22 05:27:42;;;;;;;56.03;24.67;;;-5.80;1.00;;;;;;8419458;28;20207;-66
2022/03/22 05:31:45;;;;;;;50.17;22.60;;;-5.70;1.00;;;;;;8428032;28;20311;-64
2022/03/22 05:35:46;;;;;;;75.07;30.57;;;-5.50;55.70;;;;;;8406021;28;20202;-68
2022/03/22 05:39:47;;;;;;;75.23;30.63;;;-5.20;99.90;;;;;;8403344;28;20203;-64
2022/03/22 05:43:48;;;;;;;62.37;27.13;;;-5.00;81.40;;;;;;8424237;28;20212;-65
2022/03/22 05:47:48;;;;;;;58.07;25.10;;;-4.80;1.80;;;;;;8424674;28;20238;-66
2022/03/22 05:51:49;;;;;;;50.77;24.10;;;-4.70;1.00;;;;;;8414477;28;20208;-66
2022/03/22 05:55:50;;;;;;;53.60;26.27;;;-4.50;1.00;;;;;;8424257;28;20231;-64
2022/03/22 05:59:51;;;;;;;60.93;30.57;;;-4.30;1.00;;;;;;8406306;28;20217;-66
2022/03/22 06:03:52;;;;;;;57.93;29.37;;;-4.00;1.00;;;;;;8409462;28;20256;-64
2022/03/22 06:07:52;;;;;;;62.60;32.13;;;-3.80;99.90;;;;;;8403808;28;20372;-65
2022/03/22 06:11:53;;;;;;;63.20;31.03;;;-3.60;1.00;;;;;;8412842;28;20217;-64
2022/03/22 06:15:55;;;;;;;67.20;30.80;;;-3.40;1.00;;;;;;8401953;28;20212;-66
2022/03/22 06:19:55;;;;;;;87.10;36.37;;;-3.20;99.90;;;;;;8411539;28;20211;-67
2022/03/22 06:23:56;;;;;;;83.10;33.97;;;-2.90;99.90;;;;;;8401611;28;20227;-65
2022/03/22 06:27:58;;;;;;;83.50;37.70;;;-2.60;1.00;;;;;;8423675;28;20206;-67
2022/03/22 06:31:58;;;;;;;86.20;40.17;;;-2.30;99.90;;;;;;8421076;28;20317;-64
2022/03/22 06:36:00;;;;;;;103.70;44.63;;;-2.10;16.00;;;;;;8425040;28;20212;-65
2022/03/22 06:40:01;;;;;;;95.97;44.53;;;-1.80;99.90;;;;;;8426458;28;20602;-67
2022/03/22 06:44:01;;;;;;;89.70;41.83;;;-1.50;99.90;;;;;;8407352;28;20279;-67
2022/03/22 06:48:03;;;;;;;76.43;38.43;;;-1.20;99.90;;;;;;8411776;28;20199;-67
2022/03/22 06:52:04;;;;;;;83.40;41.43;;;-0.90;99.90;;;;;;8435147;28;20215;-66
2022/03/22 06:56:05;;;;;;;83.53;41.40;;;-0.60;1.00;;;;;;8421223;28;20222;-67
2022/03/22 07:00:09;;;;;;;81.73;39.67;;;-0.30;1.00;;;;;;8418221;28;20619;-66
2022/03/22 07:04:10;;;;;;;74.20;39.73;;;0.10;99.90;;;;;;8421089;28;20208;-67
2022/03/22 07:08:11;;;;;;;84.63;39.07;;;0.40;1.00;;;;;;8417577;28;20197;-64
2022/03/22 07:12:13;;;;;;;71.07;38.73;;;0.80;1.00;;;;;;8419709;28;20283;-67
2022/03/22 07:16:14;;;;;;;75.23;35.40;;;1.10;99.90;;;;;;8412620;28;20198;-67
2022/03/22 07:20:15;;;;;;;63.93;33.53;;;1.50;99.90;;;;;;8402840;28;20229;-66
2022/03/22 07:24:20;;;;;;;57.50;33.80;;;1.90;99.90;;;;;;8401010;28;20218;-65
2022/03/22 07:28:21;;;;;;;64.60;31.73;;;2.20;1.00;;;;;;8407180;28;20201;-67
2022/03/22 07:32:22;;;;;;;72.17;37.03;;;2.60;99.90;;;;;;8420894;28;20318;-65
2022/03/22 07:36:23;;;;;;;64.00;33.80;;;2.90;96.10;;;;;;8418410;28;20208;-68
2022/03/22 07:40:24;;;;;;;72.10;39.40;;;3.30;1.00;;;;;;8449336;28;20211;-65
2022/03/22 07:44:27;;;;;;;57.47;33.63;;;3.60;1.00;;;;;;8407814;28;20216;-67
2022/03/22 07:48:28;;;;;;;66.57;35.50;;;4.00;99.90;;;;;;8410325;28;20230;-68
2022/03/22 07:56:48;;;;;;;33.00;18.17;;;4.60;99.90;;;;;;8436190;28;20251;-66
2022/03/22 08:00:49;;;;;;;30.77;16.77;;;5.20;1.00;;;;;;8434776;28;20220;-67
2022/03/22 08:04:49;;;;;;;32.33;18.47;;;5.60;1.00;;;;;;8408873;28;20340;-67
2022/03/22 08:08:50;;;;;;;40.57;19.93;;;6.00;1.00;;;;;;8403202;28;20245;-65
2022/03/22 08:12:51;;;;;;;32.53;18.13;;;6.50;99.90;;;;;;8423987;28;20253;-65
2022/03/22 08:16:52;;;;;;;36.17;18.97;;;7.00;99.90;;;;;;8405022;28;20265;-65
2022/03/22 08:20:53;;;;;;;31.60;17.83;;;7.30;99.90;;;;;;8428410;28;20306;-64
2022/03/22 08:24:53;;;;;;;30.93;17.70;;;7.70;99.90;;;;;;8403638;28;20216;-67
2022/03/22 08:28:57;;;;;;;28.53;16.50;;;8.00;99.90;;;;;;8419590;28;20291;-66
2022/03/22 08:33:03;;;;;;;30.17;16.27;;;8.40;99.90;;;;;;8425728;28;20200;-67
2022/03/22 08:37:05;;;;;;;26.73;15.83;;;8.70;99.90;;;;;;8404087;28;20232;-67
2022/03/22 08:41:05;;;;;;;28.33;16.33;;;9.00;99.90;;;;;;8410939;28;20306;-67
2022/03/22 08:45:07;;;;;;;29.73;17.23;;;9.40;99.90;;;;;;8408441;28;20302;-65
2022/03/22 08:49:08;;;;;;;24.13;15.63;;;9.70;99.90;;;;;;8417861;28;20231;-65
2022/03/22 08:53:10;;;;;;;24.03;16.23;;;10.00;99.90;;;;;;8400731;28;20210;-66
2022/03/22 08:57:11;;;;;;;25.83;15.67;;;10.30;99.90;;;;;;8434995;28;20204;-66
2022/03/22 09:01:12;;;;;;;25.13;16.50;;;10.60;99.90;;;;;;8431280;28;20216;-68
2022/03/22 09:09:32;;;;;;;26.97;16.60;;;11.10;99.90;;;;;;8421565;28;20444;-65
2022/03/22 09:13:33;;;;;;;19.30;13.23;;;11.30;99.90;;;;;;8404020;28;20232;-67
2022/03/22 09:17:34;;;;;;;21.23;13.63;;;11.60;99.90;;;;;;8397513;28;20241;-64
2022/03/22 09:21:35;;;;;;;26.17;15.60;;;11.90;99.90;;;;;;8431185;28;20226;-65
2022/03/22 09:25:37;;;;;;;21.93;14.23;;;12.10;99.90;;;;;;8421895;28;20234;-67
2022/03/22 09:29:38;;;;;;;24.20;14.03;;;12.30;99.90;;;;;;8438727;28;20240;-64
2022/03/22 09:33:38;;;;;;;26.80;17.00;;;12.50;97.20;;;;;;8407272;28;20204;-65
2022/03/22 09:37:42;;;;;;;22.03;13.77;;;12.70;93.10;;;;;;8420289;28;20211;-66
2022/03/22 09:41:47;;;;;;;22.83;15.50;;;12.90;89.50;;;;;;8420504;28;20216;-66
2022/03/22 09:45:49;;;;;;;20.57;14.27;;;13.10;80.50;;;;;;8408624;28;20216;-65
2022/03/22 09:49:51;;;;;;;18.87;12.10;;;13.20;74.10;;;;;;8404417;28;20223;-66
2022/03/22 09:53:53;;;;;;;21.10;14.20;;;13.40;66.70;;;;;;8426530;28;20261;-65
2022/03/22 09:57:54;;;;;;;19.63;13.77;;;13.60;70.60;;;;;;8425975;28;20199;-67
2022/03/22 10:02:00;;;;;;;20.37;13.47;;;13.70;73.70;;;;;;8403598;28;20251;-66
2022/03/22 10:06:03;;;;;;;23.10;14.53;;;13.90;61.90;;;;;;8411919;28;20235;-67
2022/03/22 10:10:06;;;;;;;19.67;13.23;;;14.00;50.40;;;;;;8414693;28;20200;-64
2022/03/22 10:14:09;;;;;;;20.13;13.53;;;14.10;48.70;;;;;;8425599;28;20227;-67
2022/03/22 10:18:12;;;;;;;18.67;11.70;;;14.20;53.40;;;;;;8416660;28;20212;-64
2022/03/22 10:22:13;;;;;;;16.27;10.87;;;14.40;48.10;;;;;;8411553;28;20220;-64
2022/03/22 10:26:14;;;;;;;11.27;8.90;;;14.70;36.00;;;;;;8411824;28;20207;-64
2022/03/22 10:30:17;;;;;;;14.27;10.07;;;14.80;29.50;;;;;;8404863;28;20204;-70
2022/03/22 10:34:29;;;;;;;11.70;8.87;;;14.90;22.20;;;;;;8411170;28;20295;-64
2022/03/22 10:38:30;;;;;;;11.47;8.93;;;15.10;18.50;;;;;;8426753;28;20300;-65
2022/03/22 10:42:32;;;;;;;13.77;9.13;;;15.20;13.20;;;;;;8421870;28;20220;-67
2022/03/22 10:46:34;;;;;;;13.13;10.00;;;15.30;13.80;;;;;;8428611;28;20203;-64
2022/03/22 10:50:38;;;;;;;16.10;10.70;;;15.50;12.90;;;;;;8433843;28;20244;-65
2022/03/22 10:54:39;;;;;;;14.80;11.10;;;15.60;10.80;;;;;;8404029;28;20211;-67
2022/03/22 10:58:42;;;;;;;13.63;9.77;;;15.60;9.60;;;;;;8432282;28;20208;-65
2022/03/22 11:02:47;;;;;;;13.77;9.47;;;15.70;11.40;;;;;;8420607;28;20224;-66
2022/03/22 11:06:48;;;;;;;12.10;8.97;;;15.70;10.50;;;;;;8435169;28;20404;-64
2022/03/22 11:10:51;;;;;;;18.50;10.07;;;15.90;5.60;;;;;;8401844;28;20204;-69
2022/03/22 11:14:53;;;;;;;13.93;9.37;;;16.00;5.80;;;;;;8405723;28;20200;-65
2022/03/22 11:18:57;;;;;;;12.60;8.73;;;16.10;4.70;;;;;;8425459;28;20204;-64
2022/03/22 11:23:00;;;;;;;11.23;8.30;;;16.20;1.80;;;;;;8418367;28;20323;-66
2022/03/22 11:27:07;;;;;;;12.30;8.43;;;16.30;1.00;;;;;;8418085;28;20193;-67
2022/03/22 11:31:09;;;;;;;13.37;9.00;;;16.40;1.00;;;;;;8424170;28;20199;-66
2022/03/22 11:35:14;;;;;;;12.63;9.13;;;16.50;1.00;;;;;;8403100;28;20201;-67
2022/03/22 11:42:15;;;;;;;13.30;8.90;;;16.60;1.00;;;;;;8409596;28;20231;-67
2022/03/22 11:43:46;;;;;;;12.33;7.80;;;16.70;1.00;;;;;;8424739;28;20224;-66
2022/03/22 11:47:49;;;;;;;11.23;8.37;;;16.80;1.00;;;;;;8437718;28;20206;-68
2022/03/22 11:51:51;;;;;;;11.73;8.27;;;16.90;1.00;;;;;;8411977;28;20207;-68
2022/03/22 11:55:57;;;;;;;15.37;9.70;;;17.00;1.00;;;;;;8402783;28;20425;-65
2022/03/22 11:59:58;;;;;;;14.70;9.33;;;17.10;1.00;;;;;;8403753;28;20203;-66
2022/03/22 12:03:59;;;;;;;12.50;9.30;;;17.10;1.00;;;;;;8440026;28;20740;-64
2022/03/22 12:08:14;;;;;;;16.03;9.10;;;17.10;1.00;;;;;;8426794;28;20208;-67
2022/03/22 12:12:16;;;;;;;14.23;8.53;;;17.10;1.00;;;;;;8403483;28;20204;-64
2022/03/22 12:16:17;;;;;;;10.67;8.23;;;17.10;1.00;;;;;;8437323;28;20203;-65
2022/03/22 12:20:20;;;;;;;15.87;8.43;;;17.10;1.00;;;;;;8430647;28;20319;-66
2022/03/22 12:24:27;;;;;;;14.60;11.17;;;17.20;1.00;;;;;;8417012;28;20219;-66
2022/03/22 12:28:28;;;;;;;14.43;10.47;;;17.30;1.00;;;;;;8417133;28;20203;-67
2022/03/22 12:32:29;;;;;;;12.60;9.93;;;17.30;1.00;;;;;;8398955;28;20231;-65
2022/03/22 12:36:30;;;;;;;11.53;8.67;;;17.30;1.00;;;;;;8399408;28;20223;-66
2022/03/22 12:40:32;;;;;;;15.47;11.57;;;17.30;1.00;;;;;;8403656;28;20203;-64
2022/03/22 12:44:33;;;;;;;14.73;9.17;;;17.20;1.00;;;;;;8403931;28;20208;-66
2022/03/22 12:48:35;;;;;;;17.90;10.40;;;17.30;1.00;;;;;;8401412;28;20206;-67
2022/03/22 12:52:36;;;;;;;13.50;10.33;;;17.30;1.00;;;;;;8422459;28;20220;-65
2022/03/22 12:56:45;;;;;;;15.97;10.80;;;17.20;1.00;;;;;;8417854;28;20254;-66
2022/03/22 13:00:45;;;;;;;13.97;10.07;;;17.20;1.00;;;;;;8429277;28;20257;-66
2022/03/22 13:04:49;;;;;;;13.87;10.53;;;17.30;1.00;;;;;;8423325;28;20212;-65
2022/03/22 13:13:17;;;;;;;14.10;10.57;;;17.40;1.00;;;;;;8420901;28;20219;-64
2022/03/22 13:17:18;;;;;;;15.03;10.40;;;17.40;1.00;;;;;;8408371;28;20303;-66
2022/03/22 13:21:23;;;;;;;15.17;10.00;;;17.40;1.00;;;;;;8412826;28;20232;-68
2022/03/22 13:25:34;;;;;;;13.17;9.90;;;17.40;1.00;;;;;;8423212;28;20253;-64
2022/03/22 13:29:43;;;;;;;14.83;10.40;;;17.40;1.00;;;;;;8406868;28;20215;-68
2022/03/22 13:33:53;;;;;;;15.07;9.77;;;17.40;1.00;;;;;;8421682;28;20215;-67
2022/03/22 13:37:55;;;;;;;20.20;10.43;;;17.50;1.00;;;;;;8422729;28;20208;-64
2022/03/22 13:42:08;;;;;;;33.17;20.53;;;17.50;1.00;;;;;;8418317;28;20228;-67
2022/03/22 13:46:11;;;;;;;28.27;14.27;;;17.50;1.00;;;;;;8411508;28;20200;-65
2022/03/22 13:50:15;;;;;;;13.17;8.33;;;17.50;1.00;;;;;;8422319;28;20299;-68
2022/03/22 13:54:17;;;;;;;13.37;8.97;;;17.50;1.00;;;;;;8414622;28;20213;-66
2022/03/22 13:58:19;;;;;;;16.60;10.47;;;17.50;1.00;;;;;;8404450;28;20237;-67
2022/03/22 14:02:19;;;;;;;14.40;9.40;;;17.60;1.00;;;;;;8406008;28;20254;-66
2022/03/22 14:06:20;;;;;;;13.83;9.67;;;17.60;1.00;;;;;;8414100;28;20207;-65
2022/03/22 14:10:21;;;;;;;13.63;9.00;;;17.60;1.00;;;;;;8430345;28;20209;-64
2022/03/22 14:14:22;;;;;;;12.30;8.73;;;17.60;1.00;;;;;;8432813;28;20208;-65
2022/03/22 14:18:23;;;;;;;13.63;10.23;;;17.50;1.00;;;;;;8410753;28;20280;-68
2022/03/22 14:22:24;;;;;;;13.90;9.30;;;17.60;1.00;;;;;;8423669;28;20216;-68
2022/03/22 14:26:24;;;;;;;14.90;9.47;;;17.60;1.00;;;;;;8408382;28;20205;-67
2022/03/22 14:30:28;;;;;;;11.03;9.17;;;17.50;1.00;;;;;;8402507;28;20640;-65
2022/03/22 14:38:49;;;;;;;15.07;9.00;;;17.40;1.00;;;;;;8426865;28;20222;-67
2022/03/22 14:42:51;;;;;;;12.33;8.23;;;17.40;1.00;;;;;;8408082;28;20244;-69
2022/03/22 14:46:53;;;;;;;21.30;9.40;;;17.30;1.00;;;;;;8411837;28;20208;-63
2022/03/22 14:50:56;;;;;;;22.90;11.07;;;17.30;1.00;;;;;;8408916;28;20221;-66
2022/03/22 14:54:57;;;;;;;18.60;10.27;;;17.30;1.00;;;;;;8411684;28;20216;-64
2022/03/22 14:58:58;;;;;;;14.00;9.60;;;17.30;1.00;;;;;;8401135;28;20286;-66
2022/03/22 15:02:59;;;;;;;19.47;9.43;;;17.20;1.00;;;;;;8403704;28;20246;-68
2022/03/22 15:06:59;;;;;;;15.10;8.17;;;17.20;1.00;;;;;;8420783;28;20235;-65
2022/03/22 15:11:00;;;;;;;12.20;9.70;;;17.10;1.00;;;;;;8422347;28;20206;-66
2022/03/22 15:15:03;;;;;;;29.50;9.90;;;17.00;1.00;;;;;;8426419;28;20211;-67
2022/03/22 15:19:04;;;;;;;12.30;7.63;;;17.00;1.00;;;;;;8428181;28;20231;-69
2022/03/22 15:23:08;;;;;;;12.43;8.20;;;16.90;1.00;;;;;;8399320;28;20273;-68
2022/03/22 15:27:10;;;;;;;14.60;8.97;;;16.90;1.00;;;;;;8411908;28;20311;-67
2022/03/22 15:31:11;;;;;;;13.87;8.10;;;16.90;1.00;;;;;;8401346;28;20204;-65
2022/03/22 15:35:13;;;;;;;10.87;7.43;;;16.80;1.00;;;;;;8430338;28;20195;-69
2022/03/22 15:39:14;;;;;;;14.73;9.17;;;16.70;1.00;;;;;;8443260;28;20200;-67
2022/03/22 15:43:18;;;;;;;11.13;7.63;;;16.60;1.00;;;;;;8416428;28;20373;-67
2022/03/22 15:47:19;;;;;;;15.90;10.40;;;16.50;1.00;;;;;;8433633;28;20231;-67
2022/03/22 15:51:20;;;;;;;13.00;9.10;;;16.40;1.00;;;;;;8419107;28;20200;-66
2022/03/22 15:55:21;;;;;;;19.97;10.20;;;16.40;1.00;;;;;;8424003;28;20208;-67
2022/03/22 15:59:22;;;;;;;13.63;7.87;;;16.30;1.00;;;;;;8404314;28;20200;-68
2022/03/22 16:03:25;;;;;;;17.30;11.30;;;16.20;1.00;;;;;;8436636;28;20338;-66
2022/03/22 16:07:26;;;;;;;13.63;9.53;;;16.10;1.00;;;;;;8407799;28;20200;-65
2022/03/22 16:11:27;;;;;;;23.27;12.03;;;16.00;1.00;;;;;;8399586;28;20208;-67
2022/03/22 16:15:28;;;;;;;17.63;11.10;;;15.90;1.00;;;;;;8425146;28;20286;-65
2022/03/22 16:19:28;;;;;;;11.00;8.00;;;15.80;1.00;;;;;;8429946;28;20193;-67
2022/03/22 16:23:31;;;;;;;14.33;8.57;;;15.70;1.00;;;;;;8399473;28;20223;-66
2022/03/22 16:27:32;;;;;;;13.20;8.93;;;15.50;1.00;;;;;;8422869;28;20250;-67
2022/03/22 16:31:33;;;;;;;17.27;9.37;;;15.30;1.00;;;;;;8423530;28;20204;-66
2022/03/22 16:39:53;;;;;;;16.87;9.27;;;14.90;1.00;;;;;;8417130;28;20258;-67
2022/03/22 16:43:54;;;;;;;15.63;9.63;;;14.70;1.00;;;;;;8400242;28;20227;-68
2022/03/22 16:47:55;;;;;;;19.93;13.67;;;14.50;1.00;;;;;;8434385;28;20642;-70
2022/03/22 17:01:51;;;;;;;16.30;10.97;;;13.80;1.00;;;;;;8428616;28;20293;-70
2022/03/22 17:05:52;;;;;;;17.10;11.33;;;13.40;1.00;;;;;;8423140;28;20216;-68
2022/03/22 17:09:53;;;;;;;19.70;11.03;;;13.10;1.90;;;;;;8446377;28;20211;-68
2022/03/22 17:13:54;;;;;;;24.60;16.67;;;12.80;6.80;;;;;;8399218;28;20203;-69
2022/03/22 17:17:56;;;;;;;98.40;44.13;;;12.50;11.60;;;;;;8427034;28;20219;-66
2022/03/22 17:21:57;;;;;;;49.63;27.67;;;12.20;18.10;;;;;;8416742;28;20268;-69
2022/03/22 17:25:57;;;;;;;33.83;21.17;;;11.90;24.60;;;;;;8412415;28;20213;-69
2022/03/22 17:29:58;;;;;;;24.87;15.43;;;11.50;34.00;;;;;;8409158;28;20212;-69
2022/03/22 17:34:00;;;;;;;18.70;11.60;;;11.20;47.30;;;;;;8408348;28;20217;-69
2022/03/22 17:38:01;;;;;;;20.20;11.90;;;10.80;66.40;;;;;;8405542;28;20231;-70
2022/03/22 17:42:05;;;;;;;28.50;13.70;;;10.50;90.50;;;;;;8431453;28;20223;-69
2022/03/22 17:46:07;;;;;;;23.87;11.03;;;10.10;99.90;;;;;;8426721;28;20203;-68
2022/03/22 17:50:10;;;;;;;14.67;8.23;;;9.80;99.90;;;;;;8418502;28;20197;-70
2022/03/22 17:54:11;;;;;;;12.10;7.17;;;9.40;99.90;;;;;;8404311;28;20223;-67
2022/03/22 17:58:12;;;;;;;10.83;7.57;;;9.20;99.90;;;;;;8436021;28;20200;-70
2022/03/22 18:02:13;;;;;;;13.33;8.47;;;8.90;99.90;;;;;;8449362;28;20219;-69
2022/03/22 18:06:14;;;;;;;17.03;9.50;;;8.70;99.90;;;;;;8424073;28;20230;-68
2022/03/22 18:10:16;;;;;;;22.17;11.47;;;8.60;99.90;;;;;;8453571;28;20207;-69
2022/03/22 18:14:18;;;;;;;18.83;9.87;;;8.40;99.90;;;;;;8417094;28;20269;-69
2022/03/22 18:18:23;;;;;;;14.47;8.63;;;8.20;99.90;;;;;;8415639;28;20208;-67
2022/03/22 18:22:24;;;;;;;12.57;8.37;;;8.00;99.90;;;;;;8429679;28;20208;-68
2022/03/22 18:26:25;;;;;;;10.63;7.23;;;7.80;99.90;;;;;;8412112;28;20214;-70
2022/03/22 18:30:27;;;;;;;12.73;8.07;;;7.70;99.90;;;;;;8421403;28;20208;-70
2022/03/22 18:34:29;;;;;;;12.63;8.10;;;7.70;99.90;;;;;;8418047;28;20201;-70
2022/03/22 18:38:33;;;;;;;31.20;14.57;;;7.60;99.90;;;;;;8420646;28;20275;-67
2022/03/22 18:42:35;;;;;;;23.13;12.53;;;7.40;99.90;;;;;;8420405;28;20220;-70
2022/03/22 18:46:37;;;;;;;20.67;11.27;;;7.20;99.90;;;;;;8405364;28;20212;-69
2022/03/22 18:50:37;;;;;;;115.57;51.07;;;7.10;99.90;;;;;;8418199;28;20307;-70
2022/03/22 18:54:39;;;;;;;86.03;41.37;;;6.90;1.00;;;;;;8429366;28;20200;-70
2022/03/22 18:58:44;;;;;;;58.10;30.33;;;6.70;99.90;;;;;;8412288;28;20219;-69
2022/03/22 19:02:45;;;;;;;54.87;27.60;;;6.50;99.90;;;;;;8420277;28;20302;-69
2022/03/22 19:06:46;;;;;;;54.70;25.80;;;6.30;99.90;;;;;;8414285;28;20226;-70
2022/03/22 19:10:47;;;;;;;62.67;29.57;;;6.00;99.90;;;;;;8425083;28;20306;-70
2022/03/22 19:14:48;;;;;;;63.67;30.60;;;5.90;99.90;;;;;;8415119;28;20210;-70
2022/03/22 19:18:50;;;;;;;37.87;18.53;;;5.70;1.00;;;;;;8413965;28;20212;-70
2022/03/22 19:22:54;;;;;;;37.20;19.10;;;5.60;1.00;;;;;;8428373;28;20227;-69
2022/03/22 19:26:55;;;;;;;29.50;18.63;;;5.40;1.00;;;;;;8408587;28;20218;-68
2022/03/22 19:35:16;;;;;;;26.20;14.20;;;5.10;1.00;;;;;;8427017;28;20218;-70
2022/03/22 19:39:16;;;;;;;19.67;11.80;;;4.80;1.00;;;;;;8440099;28;20610;-69
2022/03/22 19:43:19;;;;;;;16.07;9.50;;;4.60;1.00;;;;;;8415788;28;20221;-69
2022/03/22 19:47:20;;;;;;;16.67;9.33;;;4.40;1.00;;;;;;8424513;28;20254;-68
2022/03/22 19:51:21;;;;;;;19.50;11.53;;;4.20;52.70;;;;;;8422940;28;20214;-69
2022/03/22 19:55:23;;;;;;;24.60;14.20;;;4.00;99.90;;;;;;8435807;28;20208;-68
2022/03/22 19:59:25;;;;;;;24.07;13.70;;;4.00;99.90;;;;;;8417528;28;20204;-68
2022/03/22 20:03:26;;;;;;;28.20;15.17;;;4.10;99.90;;;;;;8422678;28;20253;-66
2022/03/22 20:07:27;;;;;;;26.87;13.90;;;4.10;99.90;;;;;;8424838;28;20200;-68
2022/03/22 20:11:27;;;;;;;24.97;15.63;;;4.20;99.90;;;;;;8412622;28;20199;-67
2022/03/22 20:15:28;;;;;;;30.60;16.17;;;4.30;99.90;;;;;;8401237;28;20208;-69
2022/03/22 20:19:30;;;;;;;30.47;15.67;;;4.40;99.90;;;;;;8429039;28;20248;-68
2022/03/22 20:23:31;;;;;;;26.17;14.40;;;4.30;99.90;;;;;;8418618;28;20542;-66
2022/03/22 20:27:32;;;;;;;37.47;18.23;;;4.10;99.90;;;;;;8401060;28;20209;-69
2022/03/22 20:31:33;;;;;;;27.70;14.70;;;3.90;99.90;;;;;;8418971;28;20207;-68
2022/03/22 20:35:34;;;;;;;23.30;13.87;;;3.50;1.00;;;;;;8408027;28;20207;-69
2022/03/22 20:39:35;;;;;;;24.63;13.27;;;3.10;1.00;;;;;;8412854;28;20212;-69
2022/03/22 20:43:37;;;;;;;28.40;13.63;;;2.90;1.00;;;;;;8424374;28;20281;-68
2022/03/22 20:47:39;;;;;;;27.30;14.33;;;2.70;1.00;;;;;;8415139;28;20224;-68
2022/03/22 20:51:41;;;;;;;31.73;15.30;;;2.50;1.00;;;;;;8422280;28;20225;-69
2022/03/22 20:59:03;;;;;;;26.13;14.77;;;2.40;1.00;;;;;;8423661;28;20218;-68
2022/03/22 21:00:05;;;;;;;31.07;15.63;;;2.20;1.00;;;;;;8441968;28;20223;-69
2022/03/22 21:04:07;;;;;;;29.83;16.53;;;2.10;1.00;;;;;;8427294;28;20500;-68
2022/03/22 21:08:12;;;;;;;32.83;15.87;;;2.00;99.90;;;;;;8419052;28;20227;-65
2022/03/22 21:12:13;;;;;;;32.20;16.43;;;1.90;99.90;;;;;;8450174;28;20301;-67
2022/03/22 21:16:14;;;;;;;30.53;15.73;;;1.80;99.90;;;;;;8433522;28;20232;-67
2022/03/22 21:20:15;;;;;;;31.37;16.23;;;1.80;99.90;;;;;;8436384;28;20570;-68
2022/03/22 21:24:16;;;;;;;29.60;16.30;;;1.70;99.90;;;;;;8440785;28;20230;-68
2022/03/22 21:28:18;;;;;;;47.63;24.60;;;1.60;99.90;;;;;;8424034;28;20237;-68
2022/03/22 21:32:18;;;;;;;54.27;26.03;;;1.50;99.90;;;;;;8420487;28;20202;-69
2022/03/22 21:36:20;;;;;;;42.67;22.57;;;1.40;1.00;;;;;;8411696;28;20204;-69